sensor_id;sensor_type;location;lat;lon;timestamp;P1;durP1;ratioP1;P2;durP2;ratioP2
42666;SDS011;28280;49.646;14.130;2022-12-07T00:00:01;2.88;;;1.58;;
42666;SDS011;28280;49.646;14.130;2022-12-07T00:05:52;3.03;;;1.75;;
42666;SDS011;28280;49.646;14.130;2022-12-07T00:11:28;2.60;;;1.73;;
42666;SDS011;28280;49.646;14.130;2022-12-07T00:16:59;2.10;;;1.58;;
42666;SDS011;28280;49.646;14.130;2022-12-07T00:22:31;2.50;;;1.77;;
42666;SDS011;28280;49.646;14.130;2022-12-07T00:28:03;3.05;;;1.67;;
42666;SDS011;28280;49.646;14.130;2022-12-07T00:33:35;2.60;;;1.75;;
42666;SDS011;28280;49.646;14.130;2022-12-07T00:39:07;2.67;;;1.90;;
42666;SDS011;28280;49.646;14.130;2022-12-07T00:44:39;3.17;;;2.10;;
42666;SDS011;28280;49.646;14.130;2022-12-07T00:50:10;3.17;;;2.03;;
42666;SDS011;28280;49.646;14.130;2022-12-07T00:55:42;2.67;;;1.75;;
42666;SDS011;28280;49.646;14.130;2022-12-07T01:01:13;2.97;;;1.85;;
42666;SDS011;28280;49.646;14.130;2022-12-07T01:06:45;3.10;;;2.00;;
42666;SDS011;28280;49.646;14.130;2022-12-07T01:12:16;3.28;;;2.20;;
42666;SDS011;28280;49.646;14.130;2022-12-07T01:17:47;2.92;;;2.25;;
42666;SDS011;28280;49.646;14.130;2022-12-07T01:23:18;3.08;;;2.20;;
42666;SDS011;28280;49.646;14.130;2022-12-07T01:28:49;3.33;;;2.08;;
42666;SDS011;28280;49.646;14.130;2022-12-07T01:34:21;4.05;;;2.30;;
42666;SDS011;28280;49.646;14.130;2022-12-07T01:39:53;2.90;;;2.15;;
42666;SDS011;28280;49.646;14.130;2022-12-07T01:45:37;2.20;;;1.90;;
42666;SDS011;28280;49.646;14.130;2022-12-07T01:51:12;2.67;;;2.08;;
42666;SDS011;28280;49.646;14.130;2022-12-07T01:56:46;2.50;;;2.10;;
42666;SDS011;28280;49.646;14.130;2022-12-07T02:02:31;3.20;;;2.30;;
42666;SDS011;28280;49.646;14.130;2022-12-07T02:08:24;2.85;;;2.30;;
42666;SDS011;28280;49.646;14.130;2022-12-07T02:13:56;2.97;;;2.20;;
42666;SDS011;28280;49.646;14.130;2022-12-07T02:20:02;3.30;;;2.50;;
42666;SDS011;28280;49.646;14.130;2022-12-07T02:31:18;2.83;;;2.22;;
42666;SDS011;28280;49.646;14.130;2022-12-07T02:36:53;3.22;;;2.40;;
42666;SDS011;28280;49.646;14.130;2022-12-07T02:42:29;3.35;;;2.55;;
42666;SDS011;28280;49.646;14.130;2022-12-07T02:48:03;3.40;;;2.63;;
42666;SDS011;28280;49.646;14.130;2022-12-07T02:53:39;3.47;;;2.53;;
42666;SDS011;28280;49.646;14.130;2022-12-07T03:11:25;3.78;;;2.75;;
42666;SDS011;28280;49.646;14.130;2022-12-07T03:17:09;4.32;;;3.22;;
42666;SDS011;28280;49.646;14.130;2022-12-07T03:22:44;5.15;;;3.03;;
42666;SDS011;28280;49.646;14.130;2022-12-07T03:28:17;4.90;;;3.00;;
42666;SDS011;28280;49.646;14.130;2022-12-07T03:34:01;5.68;;;3.10;;
42666;SDS011;28280;49.646;14.130;2022-12-07T03:45:56;4.72;;;3.40;;
42666;SDS011;28280;49.646;14.130;2022-12-07T03:51:36;4.28;;;3.30;;
42666;SDS011;28280;49.646;14.130;2022-12-07T03:57:28;4.35;;;3.40;;
42666;SDS011;28280;49.646;14.130;2022-12-07T04:03:00;4.75;;;3.60;;
42666;SDS011;28280;49.646;14.130;2022-12-07T04:08:32;5.25;;;3.47;;
42666;SDS011;28280;49.646;14.130;2022-12-07T04:14:03;4.32;;;2.95;;
42666;SDS011;28280;49.646;14.130;2022-12-07T04:19:50;4.97;;;3.00;;
42666;SDS011;28280;49.646;14.130;2022-12-07T04:25:21;4.20;;;3.03;;
42666;SDS011;28280;49.646;14.130;2022-12-07T04:30:52;4.47;;;3.40;;
42666;SDS011;28280;49.646;14.130;2022-12-07T04:36:23;4.78;;;3.42;;
42666;SDS011;28280;49.646;14.130;2022-12-07T04:41:54;4.78;;;3.25;;
42666;SDS011;28280;49.646;14.130;2022-12-07T04:47:26;4.05;;;3.40;;
42666;SDS011;28280;49.646;14.130;2022-12-07T04:52:57;4.60;;;3.35;;
42666;SDS011;28280;49.646;14.130;2022-12-07T04:58:29;4.28;;;3.22;;
42666;SDS011;28280;49.646;14.130;2022-12-07T05:04:00;3.88;;;3.03;;
42666;SDS011;28280;49.646;14.130;2022-12-07T05:09:31;4.32;;;3.10;;
42666;SDS011;28280;49.646;14.130;2022-12-07T05:15:03;4.13;;;2.88;;
42666;SDS011;28280;49.646;14.130;2022-12-07T05:20:35;3.05;;;2.55;;
42666;SDS011;28280;49.646;14.130;2022-12-07T05:26:12;3.92;;;3.00;;
42666;SDS011;28280;49.646;14.130;2022-12-07T05:31:43;4.35;;;3.03;;
42666;SDS011;28280;49.646;14.130;2022-12-07T05:37:15;4.57;;;3.38;;
42666;SDS011;28280;49.646;14.130;2022-12-07T05:42:46;4.60;;;3.10;;
42666;SDS011;28280;49.646;14.130;2022-12-07T05:48:17;4.45;;;2.80;;
42666;SDS011;28280;49.646;14.130;2022-12-07T05:53:48;3.65;;;2.88;;
42666;SDS011;28280;49.646;14.130;2022-12-07T05:59:19;3.60;;;2.45;;
42666;SDS011;28280;49.646;14.130;2022-12-07T06:04:54;3.22;;;2.40;;
42666;SDS011;28280;49.646;14.130;2022-12-07T06:10:25;3.95;;;2.92;;
42666;SDS011;28280;49.646;14.130;2022-12-07T06:15:56;3.67;;;3.05;;
42666;SDS011;28280;49.646;14.130;2022-12-07T06:21:27;3.83;;;2.70;;
42666;SDS011;28280;49.646;14.130;2022-12-07T06:26:59;4.28;;;2.90;;
42666;SDS011;28280;49.646;14.130;2022-12-07T06:32:30;4.25;;;3.20;;
42666;SDS011;28280;49.646;14.130;2022-12-07T06:38:02;4.85;;;3.05;;
42666;SDS011;28280;49.646;14.130;2022-12-07T06:43:33;4.40;;;2.97;;
42666;SDS011;28280;49.646;14.130;2022-12-07T06:49:05;5.00;;;3.13;;
42666;SDS011;28280;49.646;14.130;2022-12-07T06:54:36;4.90;;;3.20;;
42666;SDS011;28280;49.646;14.130;2022-12-07T07:00:08;4.57;;;3.35;;
42666;SDS011;28280;49.646;14.130;2022-12-07T07:05:40;4.45;;;3.53;;
42666;SDS011;28280;49.646;14.130;2022-12-07T07:11:12;4.55;;;3.15;;
42666;SDS011;28280;49.646;14.130;2022-12-07T07:16:43;5.47;;;3.35;;
42666;SDS011;28280;49.646;14.130;2022-12-07T07:22:14;5.40;;;3.72;;
42666;SDS011;28280;49.646;14.130;2022-12-07T07:27:45;4.63;;;3.22;;
42666;SDS011;28280;49.646;14.130;2022-12-07T07:33:17;5.03;;;3.40;;
42666;SDS011;28280;49.646;14.130;2022-12-07T07:38:48;5.43;;;3.80;;
42666;SDS011;28280;49.646;14.130;2022-12-07T07:44:19;5.28;;;3.42;;
42666;SDS011;28280;49.646;14.130;2022-12-07T07:49:50;5.72;;;3.95;;
42666;SDS011;28280;49.646;14.130;2022-12-07T07:55:21;4.53;;;3.15;;
42666;SDS011;28280;49.646;14.130;2022-12-07T08:00:53;5.63;;;3.72;;
42666;SDS011;28280;49.646;14.130;2022-12-07T08:06:25;5.68;;;3.95;;
42666;SDS011;28280;49.646;14.130;2022-12-07T08:12:01;4.95;;;3.65;;
42666;SDS011;28280;49.646;14.130;2022-12-07T08:17:32;4.70;;;3.80;;
42666;SDS011;28280;49.646;14.130;2022-12-07T08:23:04;6.15;;;3.67;;
42666;SDS011;28280;49.646;14.130;2022-12-07T08:28:36;5.75;;;4.18;;
42666;SDS011;28280;49.646;14.130;2022-12-07T08:34:09;6.25;;;4.18;;
42666;SDS011;28280;49.646;14.130;2022-12-07T08:39:41;4.80;;;3.90;;
42666;SDS011;28280;49.646;14.130;2022-12-07T08:45:13;6.35;;;4.18;;
42666;SDS011;28280;49.646;14.130;2022-12-07T08:50:45;5.43;;;3.75;;
42666;SDS011;28280;49.646;14.130;2022-12-07T08:56:19;6.65;;;4.93;;
42666;SDS011;28280;49.646;14.130;2022-12-07T09:01:52;5.80;;;4.07;;
42666;SDS011;28280;49.646;14.130;2022-12-07T09:07:23;6.45;;;4.68;;
42666;SDS011;28280;49.646;14.130;2022-12-07T09:12:55;6.15;;;3.95;;
42666;SDS011;28280;49.646;14.130;2022-12-07T09:18:31;5.97;;;4.70;;
42666;SDS011;28280;49.646;14.130;2022-12-07T09:24:03;8.02;;;4.50;;
42666;SDS011;28280;49.646;14.130;2022-12-07T09:29:34;6.35;;;4.75;;
42666;SDS011;28280;49.646;14.130;2022-12-07T09:35:06;8.27;;;4.50;;
42666;SDS011;28280;49.646;14.130;2022-12-07T09:40:37;7.63;;;5.18;;
42666;SDS011;28280;49.646;14.130;2022-12-07T09:46:10;6.93;;;5.20;;
42666;SDS011;28280;49.646;14.130;2022-12-07T09:51:45;7.63;;;5.05;;
42666;SDS011;28280;49.646;14.130;2022-12-07T09:57:17;6.53;;;4.35;;
42666;SDS011;28280;49.646;14.130;2022-12-07T10:08:28;7.13;;;4.80;;
42666;SDS011;28280;49.646;14.130;2022-12-07T10:14:11;7.22;;;4.97;;
42666;SDS011;28280;49.646;14.130;2022-12-07T10:19:43;8.35;;;5.07;;
42666;SDS011;28280;49.646;14.130;2022-12-07T10:25:18;7.78;;;4.18;;
42666;SDS011;28280;49.646;14.130;2022-12-07T10:30:52;7.20;;;5.05;;
42666;SDS011;28280;49.646;14.130;2022-12-07T10:42:09;7.07;;;4.82;;
42666;SDS011;28280;49.646;14.130;2022-12-07T11:28:59;7.63;;;5.05;;
42666;SDS011;28280;49.646;14.130;2022-12-07T11:40:48;7.05;;;4.93;;
42666;SDS011;28280;49.646;14.130;2022-12-07T11:46:20;7.60;;;4.88;;
42666;SDS011;28280;49.646;14.130;2022-12-07T11:51:57;8.38;;;5.22;;
42666;SDS011;28280;49.646;14.130;2022-12-07T11:57:35;7.55;;;5.28;;
42666;SDS011;28280;49.646;14.130;2022-12-07T12:03:11;6.78;;;4.90;;
42666;SDS011;28280;49.646;14.130;2022-12-07T12:08:46;7.32;;;4.93;;
42666;SDS011;28280;49.646;14.130;2022-12-07T12:21:18;6.53;;;4.72;;
42666;SDS011;28280;49.646;14.130;2022-12-07T12:26:52;7.80;;;5.00;;
42666;SDS011;28280;49.646;14.130;2022-12-07T12:32:40;7.82;;;5.10;;
42666;SDS011;28280;49.646;14.130;2022-12-07T12:38:27;8.82;;;5.88;;
42666;SDS011;28280;49.646;14.130;2022-12-07T12:44:03;7.80;;;5.40;;
42666;SDS011;28280;49.646;14.130;2022-12-07T12:56:04;7.40;;;4.80;;
42666;SDS011;28280;49.646;14.130;2022-12-07T13:01:46;6.43;;;4.70;;
42666;SDS011;28280;49.646;14.130;2022-12-07T13:20:07;12.30;;;7.20;;
42666;SDS011;28280;49.646;14.130;2022-12-07T13:31:54;9.20;;;5.35;;
42666;SDS011;28280;49.646;14.130;2022-12-07T13:37:28;8.88;;;5.50;;
42666;SDS011;28280;49.646;14.130;2022-12-07T13:43:12;8.40;;;5.25;;
42666;SDS011;28280;49.646;14.130;2022-12-07T13:48:49;8.98;;;5.05;;
42666;SDS011;28280;49.646;14.130;2022-12-07T13:54:21;10.20;;;5.45;;
42666;SDS011;28280;49.646;14.130;2022-12-07T13:59:53;7.70;;;5.05;;
42666;SDS011;28280;49.646;14.130;2022-12-07T14:10:57;8.43;;;4.93;;
42666;SDS011;28280;49.646;14.130;2022-12-07T14:16:31;7.10;;;4.13;;
42666;SDS011;28280;49.646;14.130;2022-12-07T14:22:07;7.05;;;4.18;;
42666;SDS011;28280;49.646;14.130;2022-12-07T14:27:46;7.13;;;4.38;;
42666;SDS011;28280;49.646;14.130;2022-12-07T14:33:21;7.63;;;4.82;;
42666;SDS011;28280;49.646;14.130;2022-12-07T14:38:54;7.65;;;4.10;;
42666;SDS011;28280;49.646;14.130;2022-12-07T14:44:27;6.50;;;4.55;;
42666;SDS011;28280;49.646;14.130;2022-12-07T14:50:05;6.63;;;4.25;;
42666;SDS011;28280;49.646;14.130;2022-12-07T14:55:38;6.47;;;4.05;;
42666;SDS011;28280;49.646;14.130;2022-12-07T15:01:09;7.28;;;4.18;;
42666;SDS011;28280;49.646;14.130;2022-12-07T15:06:41;7.97;;;4.72;;
42666;SDS011;28280;49.646;14.130;2022-12-07T15:12:15;7.38;;;4.50;;
42666;SDS011;28280;49.646;14.130;2022-12-07T15:17:46;6.45;;;3.83;;
42666;SDS011;28280;49.646;14.130;2022-12-07T15:23:17;7.72;;;4.43;;
42666;SDS011;28280;49.646;14.130;2022-12-07T15:28:49;8.18;;;5.13;;
42666;SDS011;28280;49.646;14.130;2022-12-07T15:34:20;6.15;;;4.25;;
42666;SDS011;28280;49.646;14.130;2022-12-07T15:39:51;7.18;;;4.50;;
42666;SDS011;28280;49.646;14.130;2022-12-07T15:45:23;8.75;;;4.63;;
42666;SDS011;28280;49.646;14.130;2022-12-07T15:51:01;7.32;;;4.63;;
42666;SDS011;28280;49.646;14.130;2022-12-07T15:56:34;7.00;;;4.75;;
42666;SDS011;28280;49.646;14.130;2022-12-07T16:02:05;8.77;;;4.88;;
42666;SDS011;28280;49.646;14.130;2022-12-07T16:07:36;7.78;;;4.72;;
42666;SDS011;28280;49.646;14.130;2022-12-07T16:13:11;6.88;;;4.32;;
42666;SDS011;28280;49.646;14.130;2022-12-07T16:18:44;6.15;;;4.25;;
42666;SDS011;28280;49.646;14.130;2022-12-07T16:24:17;6.45;;;4.35;;
42666;SDS011;28280;49.646;14.130;2022-12-07T16:29:48;8.15;;;4.50;;
42666;SDS011;28280;49.646;14.130;2022-12-07T16:35:19;7.18;;;4.68;;
42666;SDS011;28280;49.646;14.130;2022-12-07T16:40:50;8.68;;;4.45;;
42666;SDS011;28280;49.646;14.130;2022-12-07T16:46:22;7.13;;;4.32;;
42666;SDS011;28280;49.646;14.130;2022-12-07T16:51:53;6.90;;;4.65;;
42666;SDS011;28280;49.646;14.130;2022-12-07T16:57:44;7.13;;;3.90;;
42666;SDS011;28280;49.646;14.130;2022-12-07T17:03:16;7.88;;;4.40;;
42666;SDS011;28280;49.646;14.130;2022-12-07T17:08:51;6.70;;;4.80;;
42666;SDS011;28280;49.646;14.130;2022-12-07T17:14:23;6.82;;;4.57;;
42666;SDS011;28280;49.646;14.130;2022-12-07T17:20:13;7.50;;;4.57;;
42666;SDS011;28280;49.646;14.130;2022-12-07T17:25:45;7.82;;;4.65;;
42666;SDS011;28280;49.646;14.130;2022-12-07T17:31:17;7.15;;;4.15;;
42666;SDS011;28280;49.646;14.130;2022-12-07T17:36:49;7.47;;;4.57;;
42666;SDS011;28280;49.646;14.130;2022-12-07T17:42:21;7.40;;;4.68;;
42666;SDS011;28280;49.646;14.130;2022-12-07T17:48:07;5.43;;;3.83;;
42666;SDS011;28280;49.646;14.130;2022-12-07T17:53:39;6.22;;;4.38;;
42666;SDS011;28280;49.646;14.130;2022-12-07T17:59:10;7.10;;;4.30;;
42666;SDS011;28280;49.646;14.130;2022-12-07T18:04:42;7.60;;;4.40;;
42666;SDS011;28280;49.646;14.130;2022-12-07T18:10:14;7.00;;;4.25;;
42666;SDS011;28280;49.646;14.130;2022-12-07T18:15:45;6.13;;;4.50;;
42666;SDS011;28280;49.646;14.130;2022-12-07T18:21:18;8.95;;;4.75;;
42666;SDS011;28280;49.646;14.130;2022-12-07T18:26:54;9.15;;;5.03;;
42666;SDS011;28280;49.646;14.130;2022-12-07T18:32:26;8.55;;;4.72;;
42666;SDS011;28280;49.646;14.130;2022-12-07T18:38:00;5.43;;;3.75;;
42666;SDS011;28280;49.646;14.130;2022-12-07T18:43:38;7.20;;;4.72;;
42666;SDS011;28280;49.646;14.130;2022-12-07T18:49:13;8.10;;;5.28;;
42666;SDS011;28280;49.646;14.130;2022-12-07T18:54:45;6.72;;;4.57;;
42666;SDS011;28280;49.646;14.130;2022-12-07T19:00:17;7.03;;;4.70;;
42666;SDS011;28280;49.646;14.130;2022-12-07T19:05:49;6.43;;;4.80;;
42666;SDS011;28280;49.646;14.130;2022-12-07T19:11:21;6.88;;;4.05;;
42666;SDS011;28280;49.646;14.130;2022-12-07T19:17:17;7.32;;;4.40;;
42666;SDS011;28280;49.646;14.130;2022-12-07T19:22:49;8.35;;;4.80;;
42666;SDS011;28280;49.646;14.130;2022-12-07T19:28:20;8.73;;;4.78;;
42666;SDS011;28280;49.646;14.130;2022-12-07T19:33:52;8.57;;;4.90;;
42666;SDS011;28280;49.646;14.130;2022-12-07T19:39:23;6.90;;;4.80;;
42666;SDS011;28280;49.646;14.130;2022-12-07T19:44:54;8.10;;;4.70;;
42666;SDS011;28280;49.646;14.130;2022-12-07T19:50:26;7.75;;;4.70;;
42666;SDS011;28280;49.646;14.130;2022-12-07T19:55:57;7.22;;;4.65;;
42666;SDS011;28280;49.646;14.130;2022-12-07T20:01:29;9.50;;;5.13;;
42666;SDS011;28280;49.646;14.130;2022-12-07T20:07:00;7.85;;;4.95;;
42666;SDS011;28280;49.646;14.130;2022-12-07T20:12:32;7.13;;;4.90;;
42666;SDS011;28280;49.646;14.130;2022-12-07T20:18:29;7.32;;;4.30;;
42666;SDS011;28280;49.646;14.130;2022-12-07T20:24:01;8.95;;;5.05;;
42666;SDS011;28280;49.646;14.130;2022-12-07T20:29:33;9.30;;;4.37;;
42666;SDS011;28280;49.646;14.130;2022-12-07T20:35:05;7.68;;;4.88;;
42666;SDS011;28280;49.646;14.130;2022-12-07T20:40:37;7.80;;;4.70;;
42666;SDS011;28280;49.646;14.130;2022-12-07T20:46:09;7.15;;;4.65;;
42666;SDS011;28280;49.646;14.130;2022-12-07T20:51:42;7.57;;;4.50;;
42666;SDS011;28280;49.646;14.130;2022-12-07T20:57:13;7.13;;;4.70;;
42666;SDS011;28280;49.646;14.130;2022-12-07T21:02:45;7.55;;;4.20;;
42666;SDS011;28280;49.646;14.130;2022-12-07T21:08:16;8.02;;;4.85;;
42666;SDS011;28280;49.646;14.130;2022-12-07T21:13:48;7.75;;;5.15;;
42666;SDS011;28280;49.646;14.130;2022-12-07T21:19:20;7.32;;;4.78;;
42666;SDS011;28280;49.646;14.130;2022-12-07T21:24:51;7.68;;;4.38;;
42666;SDS011;28280;49.646;14.130;2022-12-07T21:30:22;7.53;;;4.80;;
42666;SDS011;28280;49.646;14.130;2022-12-07T21:35:54;6.70;;;4.47;;
42666;SDS011;28280;49.646;14.130;2022-12-07T21:41:26;9.48;;;5.03;;
42666;SDS011;28280;49.646;14.130;2022-12-07T21:47:02;6.85;;;4.57;;
42666;SDS011;28280;49.646;14.130;2022-12-07T21:52:33;8.57;;;5.38;;
42666;SDS011;28280;49.646;14.130;2022-12-07T21:58:05;9.10;;;5.35;;
42666;SDS011;28280;49.646;14.130;2022-12-07T22:03:37;7.85;;;4.72;;
42666;SDS011;28280;49.646;14.130;2022-12-07T22:09:11;7.93;;;5.03;;
42666;SDS011;28280;49.646;14.130;2022-12-07T22:14:42;7.72;;;4.75;;
42666;SDS011;28280;49.646;14.130;2022-12-07T22:20:33;7.88;;;5.32;;
42666;SDS011;28280;49.646;14.130;2022-12-07T22:26:05;7.90;;;5.28;;
42666;SDS011;28280;49.646;14.130;2022-12-07T22:37:57;6.70;;;4.55;;
42666;SDS011;28280;49.646;14.130;2022-12-07T22:43:28;6.80;;;4.78;;
42666;SDS011;28280;49.646;14.130;2022-12-07T22:48:59;7.00;;;4.35;;
42666;SDS011;28280;49.646;14.130;2022-12-07T22:54:31;7.53;;;4.53;;
42666;SDS011;28280;49.646;14.130;2022-12-07T23:00:03;7.45;;;4.88;;
42666;SDS011;28280;49.646;14.130;2022-12-07T23:05:45;8.20;;;4.73;;
42666;SDS011;28280;49.646;14.130;2022-12-07T23:11:19;6.63;;;4.47;;
42666;SDS011;28280;49.646;14.130;2022-12-07T23:17:10;6.95;;;4.47;;
42666;SDS011;28280;49.646;14.130;2022-12-07T23:22:41;6.70;;;4.53;;
42666;SDS011;28280;49.646;14.130;2022-12-07T23:28:13;7.60;;;4.80;;
42666;SDS011;28280;49.646;14.130;2022-12-07T23:33:44;6.88;;;4.40;;
42666;SDS011;28280;49.646;14.130;2022-12-07T23:39:16;9.35;;;4.75;;
42666;SDS011;28280;49.646;14.130;2022-12-07T23:44:47;8.70;;;5.22;;
42666;SDS011;28280;49.646;14.130;2022-12-07T23:50:18;8.35;;;4.97;;
42666;SDS011;28280;49.646;14.130;2022-12-07T23:55:50;9.10;;;4.88;;
